Latest Weather Observations for Telfer

IDW60801

Issued at 12:03 pm WST Wednesday 23 August 2017 (issued every 30 minutes, with the page automatically refreshed every 10 minutes)

About weather observations | Map of weather stations | Latest weather observations for WA | Other Formats
Station Details ID: 013030 Name: TELFER AERO Lat: -21.71 Lon: 122.23 Height: 291.9 m
Data from the previous 72 hours. | See also: Recent months at Telfer
Date/Time
WST
Temp
°C
App
Temp
°C
Dew
Point
°C
Rel
Hum
%
Delta-T
°C
Wind Press
QNH
hPa
Press
MSL
hPa
Rain since
9am
mm
Dir  Spd
km/h
Gust
km/h
Spd
kts
Gust
kts
23/12:00pm 32.8 27.9 1.8 14 15.7 SE 17 28 9 15 1017.8 1016.8 0.0
23/11:30am 32.2 26.8 1.3 14 15.5 E 19 28 10 15 1018.2 1017.2 0.0
23/11:00am 31.0 25.6 1.4 15 14.7 ENE 19 24 10 13 1018.7 1017.7 0.0
23/10:30am 30.1 25.1 1.5 16 14.2 ENE 17 24 9 13 1019.0 1018.0 0.0
23/10:00am 28.9 23.9 1.4 17 13.5 NE 17 24 9 13 1019.3 1018.4 0.0
23/09:30am 27.4 22.0 1.0 18 12.8 NE 19 24 10 13 1019.5 1018.6 0.0
23/09:00am 26.0 21.1 2.0 21 11.7 ENE 17 22 9 12 1019.4 1018.5 0.0
23/08:30am 24.0 19.1 2.2 24 10.5 ESE 17 20 9 11 1019.2 1018.2 0.0
23/08:00am 22.8 18.3 2.3 26 9.8 ESE 15 19 8 10 1018.8 1017.8 0.0
23/07:30am 21.6 16.7 1.8 27 9.3 SE 17 20 9 11 1018.5 1017.5 0.0
23/07:00am 20.3 15.8 2.2 30 8.5 SE 15 19 8 10 1018.3 1017.3 0.0
23/06:30am 18.4 13.9 2.3 34 7.5 ENE 15 17 8 9 1018.0 1017.0 0.0
23/06:00am 14.3 10.0 3.2 47 5.1 E 15 17 8 9 1017.7 1016.7 0.0
23/05:30am 15.0 11.1 3.2 45 5.4 SE 13 15 7 8 1017.5 1016.5 0.0
23/05:00am 15.8 11.8 2.9 42 5.9 SE 13 13 7 7 1017.3 1016.3 0.0
23/04:30am 16.0 12.4 2.8 41 6.1 SE 11 15 6 8 1017.1 1016.1 0.0
23/04:00am 18.4 14.0 2.7 35 7.3 SE 15 17 8 9 1017.0 1016.0 0.0
23/03:30am 15.4 11.4 2.9 43 5.7 SE 13 17 7 9 1016.9 1015.9 0.0
23/03:00am 17.0 12.7 3.0 39 6.5 SE 15 17 8 9 1016.9 1015.9 0.0
23/02:30am 19.6 15.2 2.5 32 8.0 SE 15 17 8 9 1016.9 1015.9 0.0
23/02:00am 20.6 16.1 2.4 30 8.6 SE 15 17 8 9 1017.0 1016.0 0.0
23/01:30am 19.2 14.9 3.4 35 7.5 SE 15 19 8 10 1017.1 1016.1 0.0
23/01:00am 16.5 12.6 3.2 41 6.2 SE 13 15 7 8 1017.2 1016.2 0.0
23/12:30am 17.5 13.5 3.0 38 6.8 SE 13 15 7 8 1017.4 1016.4 0.0
23/12:00am 18.8 15.2 3.0 35 7.4 SE 11 13 6 7 1017.7 1016.7 0.0
 
Date/Time
WST
Temp
°C
App
Temp
°C
Dew
Point
°C
Rel
Hum
%
Delta-T
°C
Wind Press
QNH
hPa
Press
MSL
hPa
Rain since
9am
mm
Dir  Spd
km/h
Gust
km/h
Spd
kts
Gust
kts
22/11:30pm 18.8 14.8 3.0 35 7.5 SE 13 17 7 9 1018.0 1017.0 0.0
22/11:00pm 21.8 18.1 2.5 28 9.2 ESE 11 13 6 7 1018.0 1017.0 0.0
22/10:30pm 22.8 19.6 2.8 27 9.7 E 9 11 5 6 1018.1 1017.1 0.0
22/10:00pm 23.2 20.3 2.7 26 9.9 E 7 9 4 5 1018.1 1017.1 0.0
22/09:30pm 23.6 21.0 3.0 26 10.1 E 6 7 3 4 1018.2 1017.2 0.0
22/09:00pm 23.5 20.7 3.4 27 9.9 ENE 7 7 4 4 1018.2 1017.2 0.0
22/08:30pm 22.7 19.6 3.8 29 9.3 E 9 9 5 5 1018.1 1017.1 0.0
22/08:00pm 23.1 20.1 4.1 29 9.4 E 9 13 5 7 1017.8 1016.8 0.0
22/07:30pm 25.7 22.2 3.6 24 11.1 SSE 11 13 6 7 1017.5 1016.5 0.0
22/07:00pm 26.1 22.6 3.4 23 11.3 SE 11 13 6 7 1017.1 1016.1 0.0
22/06:30pm 26.6 23.2 3.8 23 11.5 SE 11 13 6 7 1016.6 1015.7 0.0
22/06:00pm 27.8 24.3 3.5 21 12.3 SSE 11 13 6 7 1016.3 1015.4 0.0
22/05:30pm 29.8 26.3 3.7 19 13.4 SE 11 13 6 7 1016.0 1015.0 0.0
22/05:00pm 31.1 27.2 3.2 17 14.3 SE 13 17 7 9 1015.8 1014.8 0.0
22/04:30pm 31.7 27.7 2.8 16 14.8 SSE 13 19 7 10 1015.7 1014.7 0.0
22/04:00pm 32.2 27.7 2.3 15 15.3 SSE 15 20 8 11 1015.5 1014.5 0.0
22/03:30pm 31.8 27.7 2.0 15 15.1 SSE 13 20 7 11 1015.5 1014.5 0.0
22/03:00pm 31.8 28.0 2.0 15 15.1 S 11 17 6 9 1015.5 1014.5 0.0
22/02:30pm 31.9 28.2 2.1 15 15.1 SSE 11 19 6 10 1015.7 1014.7 0.0
22/02:00pm 31.8 27.7 2.0 15 15.1 SSE 13 24 7 13 1015.8 1014.8 0.0
22/01:30pm 31.1 26.9 1.4 15 14.8 S 13 26 7 14 1016.2 1015.2 0.0
22/01:00pm 31.4 28.4 1.7 15 14.9 SSW 7 13 4 7 1016.3 1015.4 0.0
22/12:30pm 30.6 27.4 1.0 15 14.6 SSE 7 15 4 8 1016.8 1015.8 0.0
22/12:00pm 29.6 25.7 1.1 16 14.0 E 11 17 6 9 1017.4 1016.4 0.0
22/11:30am 29.3 25.4 0.9 16 13.9 ESE 11 17 6 9 1017.9 1016.9 0.0
22/11:00am 28.1 23.6 -0.1 16 13.4 ESE 13 17 7 9 1018.2 1017.2 0.0
22/10:30am 27.0 22.8 1.4 19 12.4 E 13 17 7 9 1018.4 1017.4 0.0
22/10:00am 25.9 21.1 0.5 19 12.0 ESE 15 20 8 11 1018.6 1017.6 0.0
22/09:30am 24.0 19.2 0.4 21 11.0 ESE 15 20 8 11 1018.7 1017.7 0.0
22/09:00am 23.0 17.9 0.8 23 10.3 ENE 17 22 9 12 1018.6 1017.6 0.0
22/08:30am 21.1 16.0 0.9 26 9.3 E 17 22 9 12 1018.5 1017.5 0.0
22/08:00am 19.1 13.9 0.2 28 8.4 E 17 20 9 11 1018.3 1017.3 0.0
22/07:30am 17.6 12.4 -0.2 30 7.8 E 17 22 9 12 1018.2 1017.2 0.0
22/07:00am 16.6 12.1 -0.6 31 7.4 E 13 17 7 9 1017.8 1016.8 0.0
22/06:30am 15.6 10.6 -1.0 32 7.0 E 15 19 8 10 1017.5 1016.5 0.0
22/06:00am 15.3 10.0 -0.9 33 6.8 E 17 20 9 11 1017.2 1016.2 0.0
22/05:30am 15.8 10.1 -0.8 32 7.1 E 19 22 10 12 1017.0 1016.0 0.0
22/05:00am 16.3 11.0 -0.8 31 7.3 E 17 20 9 11 1016.9 1015.9 0.0
22/04:30am 16.6 11.2 -1.0 30 7.5 ESE 17 22 9 12 1016.6 1015.7 0.0
22/04:00am 16.9 11.5 -1.2 29 7.7 E 17 22 9 12 1016.6 1015.7 0.0
22/03:30am 17.1 11.7 -1.1 29 7.8 E 17 22 9 12 1016.5 1015.6 0.0
22/03:00am 16.1 11.5 -1.0 31 7.2 E 13 17 7 9 1016.5 1015.6 0.0
22/02:30am 17.6 11.9 -0.6 29 7.9 ESE 19 20 10 11 1016.9 1015.9 0.0
22/02:00am 16.8 11.5 -0.9 30 7.6 E 17 20 9 11 1016.6 1015.7 0.0
22/01:30am 17.2 11.9 -0.5 30 7.7 E 17 20 9 11 1016.6 1015.7 0.0
22/01:00am 17.7 12.0 -0.5 29 7.9 E 19 22 10 12 1016.8 1015.8 0.0
22/12:30am 18.1 12.5 -0.2 29 8.0 ESE 19 20 10 11 1017.0 1016.0 0.0
22/12:00am 18.1 12.6 0.3 30 7.9 SE 19 20 10 11 1017.1 1016.1 0.0
 
Date/Time
WST
Temp
°C
App
Temp
°C
Dew
Point
°C
Rel
Hum
%
Delta-T
°C
Wind Press
QNH
hPa
Press
MSL
hPa
Rain since
9am
mm
Dir  Spd
km/h
Gust
km/h
Spd
kts
Gust
kts
21/11:30pm 18.5 13.4 0.6 30 8.0 SE 17 22 9 12 1017.3 1016.3 0.0
21/11:00pm 18.6 13.5 0.7 30 8.0 SE 17 19 9 10 1017.4 1016.4 0.0
21/10:30pm 20.2 14.8 1.1 28 8.8 SE 19 22 10 12 1017.5 1016.5 0.0
21/10:00pm 20.7 15.7 1.6 28 8.9 SE 17 20 9 11 1017.6 1016.6 0.0
21/09:30pm 21.2 16.3 2.0 28 9.0 SE 17 19 9 10 1017.4 1016.4 0.0
21/09:00pm 21.2 16.9 3.0 30 8.7 SE 15 19 8 10 1017.4 1016.4 0.0
21/08:30pm 20.4 16.9 3.6 33 8.1 SE 11 13 6 7 1017.3 1016.3 0.0
21/08:00pm 20.9 17.8 3.6 32 8.4 SE 9 11 5 6 1017.1 1016.1 0.0
21/07:30pm 21.1 17.7 3.8 32 8.4 SE 11 11 6 6 1016.8 1015.8 0.0
21/07:00pm 22.8 19.0 3.9 29 9.3 SE 13 15 7 8 1016.4 1015.5 0.0
21/06:30pm 23.5 20.1 4.0 28 9.7 SSE 11 11 6 6 1016.2 1015.2 0.0
21/06:00pm 24.5 21.5 4.3 27 10.2 SE 9 13 5 7 1016.0 1015.0 0.0
21/05:30pm 26.3 22.2 4.1 24 11.3 SSE 15 20 8 11 1015.7 1014.7 0.0
21/05:00pm 27.5 22.6 3.9 22 12.0 SSE 19 24 10 13 1015.6 1014.6 0.0
21/04:30pm 27.9 22.8 4.2 22 12.2 SSE 20 28 11 15 1015.4 1014.4 0.0
21/04:00pm 28.0 22.9 4.3 22 12.2 SSE 20 26 11 14 1015.3 1014.3 0.0
21/03:30pm 28.2 23.0 3.8 21 12.5 SSE 20 28 11 15 1015.0 1014.0 0.0
21/03:00pm 28.4 22.9 4.0 21 12.5 SE 22 33 12 18 1014.9 1013.9 0.0
21/02:30pm 28.0 22.1 3.7 21 12.4 SE 24 35 13 19 1015.0 1014.0 0.0
21/02:00pm 27.9 22.9 3.6 21 12.3 ESE 19 28 10 15 1015.2 1014.2 0.0
21/01:30pm 27.5 21.8 2.6 20 12.4 SE 22 33 12 18 1015.5 1014.5 0.0
21/01:00pm 27.0 21.3 2.8 21 12.0 ESE 22 32 12 17 1016.0 1015.0 0.0
21/12:30pm 26.0 19.8 2.0 21 11.7 ESE 24 33 13 18 1016.5 1015.6 0.0
21/12:00pm 26.0 19.7 1.3 20 11.9 ESE 24 33 13 18 1017.1 1016.1 0.0
21/11:30am 25.2 18.1 1.3 21 11.4 ESE 28 37 15 20 1017.8 1016.8 0.0
21/11:00am 24.4 16.8 0.7 21 11.1 ESE 30 37 16 20 1018.3 1017.3 0.0
21/10:30am 23.3 15.1 0.4 22 10.6 SE 33 41 18 22 1018.6 1017.6 0.0
21/10:00am 22.4 13.7 -0.3 22 10.3 ESE 35 43 19 23 1018.9 1017.9 0.0
21/09:50am 21.7 13.3 -0.9 22 10.1 ESE 33 52 18 28 1019.1 1018.1 0.0
21/09:30am 21.2 12.6 -0.1 24 9.6 ESE 35 44 19 24 1019.1 1018.1 0.0
21/09:00am 20.3 11.6 -0.3 25 9.2 ESE 35 43 19 23 1019.2 1018.2 0.0
21/08:30am 18.8 10.0 -1.1 26 8.6 ESE 35 46 19 25 1019.2 1018.2 0.0
21/08:00am 17.3 9.4 -1.9 27 8.1 SE 30 39 16 21 1019.1 1018.1 0.0
21/07:30am 16.1 7.6 -1.9 29 7.5 SE 33 41 18 22 1019.0 1018.0 0.0
21/07:00am 14.6 8.1 -2.3 31 6.9 SE 22 28 12 15 1018.7 1017.7 0.0
21/06:30am 13.0 6.9 -2.5 34 6.2 SE 20 24 11 13 1018.4 1017.4 0.0
21/06:00am 12.8 6.7 -2.6 34 6.1 SE 20 24 11 13 1018.0 1017.0 0.0
21/05:30am 13.0 6.9 -2.5 34 6.2 ESE 20 24 11 13 1017.7 1016.7 0.0
21/05:00am 13.3 7.4 -2.6 33 6.3 E 19 22 10 12 1017.4 1016.4 0.0
21/04:30am 13.9 7.7 -2.9 31 6.7 E 20 24 11 13 1017.0 1016.0 0.0
21/04:00am 14.6 8.4 -2.8 30 7.0 ESE 20 26 11 14 1017.0 1016.0 0.0
21/03:30am 15.1 8.5 -3.2 28 7.3 ESE 22 28 12 15 1017.0 1016.0 0.0
21/03:00am 15.6 8.7 -2.8 28 7.5 ESE 24 33 13 18 1017.0 1016.0 0.0
21/02:30am 16.1 9.2 -2.9 27 7.7 ESE 24 30 13 16 1016.9 1015.9 0.0
21/02:00am 16.2 9.7 -2.3 28 7.6 ESE 22 28 12 15 1016.8 1015.8 0.0
21/01:30am 16.0 10.2 -1.5 30 7.3 ESE 19 22 10 12 1016.8 1015.8 0.0
21/01:00am 16.4 10.8 -0.3 32 7.2 ESE 19 24 10 13 1016.9 1015.9 0.0
21/12:30am 17.4 11.6 0.1 31 7.6 ESE 20 26 11 14 1017.0 1016.0 0.0
21/12:00am 17.6 12.1 1.6 34 7.3 SE 20 26 11 14 1017.0 1016.0 0.0
 
Date/Time
WST
Temp
°C
App
Temp
°C
Dew
Point
°C
Rel
Hum
%
Delta-T
°C
Wind Press
QNH
hPa
Press
MSL
hPa
Rain since
9am
mm
Dir  Spd
km/h
Gust
km/h
Spd
kts
Gust
kts
20/11:30pm 18.6 13.2 2.4 34 7.5 SE 20 30 11 16 1017.2 1016.2 0.0
20/11:00pm 18.8 13.6 2.6 34 7.6 SE 19 24 10 13 1017.3 1016.3 0.0
20/10:30pm 19.4 14.3 3.2 34 7.7 SSE 19 22 10 12 1017.4 1016.4 0.0
20/10:00pm 19.8 15.2 3.5 34 7.8 SSE 17 22 9 12 1017.4 1016.4 0.0
20/09:30pm 19.5 15.3 4.0 36 7.5 SSE 15 19 8 10 1017.3 1016.3 0.0
20/09:00pm 18.9 15.1 3.9 37 7.2 SE 13 17 7 9 1017.3 1016.3 0.0
20/08:30pm 20.0 15.9 4.1 35 7.7 SE 15 19 8 10 1017.2 1016.2 0.0
20/08:00pm 21.4 17.3 4.5 33 8.4 SE 15 19 8 10 1017.1 1016.1 0.0
20/07:30pm 21.7 18.0 4.3 32 8.6 SSE 13 15 7 8 1016.9 1015.9 0.0
20/07:00pm 21.9 18.2 4.5 32 8.6 SE 13 13 7 7 1016.5 1015.6 0.0
20/06:30pm 23.0 19.3 4.5 30 9.3 ESE 13 15 7 8 1016.2 1015.2 0.0
20/06:00pm 24.0 20.4 4.9 29 9.7 ESE 13 17 7 9 1016.0 1015.0 0.0
20/05:30pm 25.4 21.1 5.1 27 10.4 SE 17 24 9 13 1015.8 1014.8 0.0
20/05:00pm 26.2 21.3 5.2 26 10.9 SE 20 30 11 16 1015.7 1014.7 0.0
20/04:30pm 26.6 21.4 5.5 26 11.0 SE 22 28 12 15 1015.3 1014.3 0.0
20/04:00pm 27.0 21.3 4.7 24 11.5 SE 24 35 13 19 1015.0 1014.0 0.0
20/03:30pm 27.6 22.0 5.2 24 11.7 SE 24 33 13 18 1014.8 1013.8 0.0
20/03:00pm 27.9 22.7 5.5 24 11.8 SE 22 35 12 19 1014.8 1013.8 0.0
20/02:30pm 27.6 21.6 5.2 24 11.7 SE 26 37 14 20 1015.1 1014.1 0.0
20/02:00pm 27.5 21.5 5.1 24 11.6 SE 26 41 14 22 1015.4 1014.4 0.0
20/01:30pm 26.7 20.7 5.1 25 11.2 SE 26 37 14 20 1015.8 1014.8 0.0
20/01:00pm 27.6 21.7 5.8 25 11.5 SE 26 32 14 17 1016.2 1015.2 0.0
20/12:30pm 26.7 20.8 5.6 26 11.0 SE 26 37 14 20 1016.8 1015.8 0.0

Other Formats:

Comma delimited format used in spreadsheet applications
http://www.bom.gov.au/fwo/IDW60801/IDW60801.94319.axf

JavaScript Object Notation format (JSON) in row-major order
http://www.bom.gov.au/fwo/IDW60801/IDW60801.94319.json